Time;durP1;ratioP1;P1;durP2;ratioP2;P2;SDS_P1;SDS_P2;PMS_P1;PMS_P2;Temp;Humidity;BMP_temperature;BMP_pressure;BME280_temperature;BME280_humidity;BME280_pressure;Samples;Min_cycle;Max_cycle;Signal;HPM_P1;HPM_P2
2022/05/27 00:00:08;;;;;;;;;;;;;;;25.04;52.32;99991.13;5031043;28;19920;-47
2022/05/27 00:02:33;;;;;;;;;;;;;;;25.19;52.21;99990.91;5031176;28;19909;-51
2022/05/27 00:04:58;;;;;;;;;;;;;;;25.17;52.08;99982.22;5031342;28;19924;-49
2022/05/27 00:07:23;;;;;;;;;;;;;;;25.23;51.97;99974.81;5030550;28;20337;-49
2022/05/27 00:09:49;;;;;;;;;;;;;;;25.06;52.18;99976.09;5030941;28;19940;-50
2022/05/27 00:12:14;;;;;;;;;;;;;;;25.30;51.82;99973.34;5030913;28;19909;-51
2022/05/27 00:14:39;;;;;;;;;;;;;;;25.12;51.83;99977.63;5031072;28;19913;-48
2022/05/27 00:17:05;;;;;;;;;;;;;;;24.90;52.53;99974.69;5030706;28;20532;-48
2022/05/27 00:19:30;;;;;;;;;;;;;;;24.85;52.27;99978.31;5030779;28;20280;-49
2022/05/27 00:21:56;;;;;;;;;;;;;;;24.95;51.92;99974.63;5031163;28;19916;-51
2022/05/27 00:24:22;;;;;;;;;;;;;;;24.98;51.70;99979.50;5031305;28;19912;-49
2022/05/27 00:26:47;;;;;;;;;;;;;;;25.12;51.00;99969.47;5030688;28;19909;-49
2022/05/27 00:29:12;;;;;;;;;;;;;;;25.00;51.84;99973.72;5031131;28;20017;-49
2022/05/27 00:31:38;;;;;;;;;;;;;;;25.20;51.15;99976.16;5031110;28;19917;-48
2022/05/27 00:34:03;;;;;;;;;;;;;;;25.22;51.07;99963.06;5031066;28;19921;-45
2022/05/27 00:36:29;;;;;;;;;;;;;;;25.38;50.30;99974.56;5048179;28;20002;-49
2022/05/27 00:38:54;;;;;;;;;;;;;;;25.19;51.15;99966.38;5050756;28;19990;-49
2022/05/27 00:41:19;;;;;;;;;;;;;;;25.08;51.45;99971.16;5050915;28;19909;-52
2022/05/27 00:43:45;;;;;;;;;;;;;;;25.11;51.40;99961.59;5050377;28;19912;-46
2022/05/27 00:46:16;;;;;;;;;;;;;;;25.11;51.15;99964.31;5050110;28;19909;-47
2022/05/27 00:48:43;;;;;;;;;;;;;;;24.77;52.51;99970.81;5050101;28;20183;-46
2022/05/27 00:51:14;;;;;;;;;;;;;;;24.82;51.96;99956.31;5050873;28;19913;-47
2022/05/27 00:54:01;;;;;;;;;;;;;;;24.69;52.20;99963.28;5050525;28;19916;-51
2022/05/27 00:56:30;;;;;;;;;;;;;;;25.29;50.47;99963.53;5050349;28;20003;-48
2022/05/27 00:58:58;;;;;;;;;;;;;;;24.81;52.01;99960.13;5050374;28;19916;-48
2022/05/27 01:01:25;;;;;;;;;;;;;;;24.80;51.73;99969.41;5050368;28;19909;-48
2022/05/27 01:03:51;;;;;;;;;;;;;;;24.83;51.51;99966.91;5049991;28;19913;-48
2022/05/27 01:06:17;;;;;;;;;;;;;;;24.89;51.38;99965.72;5050077;28;19909;-48
2022/05/27 01:08:44;;;;;;;;;;;;;;;24.47;52.52;99961.88;5049765;28;19908;-48
2022/05/27 01:11:27;;;;;;;;;;;;;;;24.33;52.66;99966.38;5050178;28;19908;-48
2022/05/27 01:14:02;;;;;;;;;;;;;;;24.41;52.30;99965.78;5050476;28;20300;-48
2022/05/27 01:16:36;;;;;;;;;;;;;;;24.57;51.68;99964.50;5050751;28;19932;-48
2022/05/27 01:22:03;;;;;;;;;;;;;;;24.30;52.64;99965.06;5052113;28;19971;-49
2022/05/27 01:25:01;;;;;;;;;;;;;;;24.33;52.49;99963.69;5054622;28;19908;-48
2022/05/27 01:27:26;;;;;;;;;;;;;;;24.65;51.43;99968.47;5041963;28;19974;-48
2022/05/27 01:29:52;;;;;;;;;;;;;;;24.15;52.65;99968.75;5054785;28;20392;-47
2022/05/27 01:32:22;;;;;;;;;;;;;;;24.50;51.85;99968.63;5054186;28;19920;-49
2022/05/27 01:35:13;;;;;;;;;;;;;;;24.42;51.90;99964.66;5050748;28;19913;-48
2022/05/27 01:37:44;;;;;;;;;;;;;;;24.59;51.25;99972.38;5034323;28;19909;-49
2022/05/27 01:40:33;;;;;;;;;;;;;;;24.24;52.26;99968.97;5034578;28;19909;-48
2022/05/27 01:42:58;;;;;;;;;;;;;;;24.53;51.59;99968.91;5030972;28;20095;-47
2022/05/27 01:45:42;;;;;;;;;;;;;;;24.54;51.51;99975.16;5034418;28;20090;-48
2022/05/27 01:48:16;;;;;;;;;;;;;;;24.34;51.88;99971.53;5033904;28;19920;-48
2022/05/27 01:50:48;;;;;;;;;;;;;;;24.23;52.37;99969.25;5034353;28;20339;-50
2022/05/27 01:53:20;;;;;;;;;;;;;;;24.33;52.04;99974.56;5033804;28;19917;-49
2022/05/27 01:55:55;;;;;;;;;;;;;;;24.24;52.05;99976.28;5035014;28;19909;-49
2022/05/27 01:58:32;;;;;;;;;;;;;;;24.33;51.82;99975.38;5053523;28;19955;-50
2022/05/27 02:00:57;;;;;;;;;;;;;;;24.22;51.99;99978.47;5053917;28;19908;-49
2022/05/27 02:03:25;;;;;;;;;;;;;;;24.33;52.10;99975.38;5053691;28;19935;-48
2022/05/27 02:06:04;;;;;;;;;;;;;;;24.58;51.35;99977.00;5054019;28;20407;-46
2022/05/27 02:08:36;;;;;;;;;;;;;;;24.33;51.91;99977.28;5053609;28;19922;-47
2022/05/27 02:11:06;;;;;;;;;;;;;;;23.93;52.79;99973.88;5053892;28;20011;-48
2022/05/27 02:13:44;;;;;;;;;;;;;;;24.05;52.54;99979.75;5053456;28;19913;-51
2022/05/27 02:16:13;;;;;;;;;;;;;;;24.54;51.49;99986.84;5053359;28;20367;-49
2022/05/27 02:18:53;;;;;;;;;;;;;;;24.55;51.51;99974.06;5053791;28;19920;-47
2022/05/27 02:21:24;;;;;;;;;;;;;;;23.94;52.93;99983.66;5053063;28;20327;-50
2022/05/27 02:23:56;;;;;;;;;;;;;;;24.13;52.56;99981.84;5053682;28;19939;-47
2022/05/27 02:26:24;;;;;;;;;;;;;;;24.35;51.81;99985.94;5053246;28;19912;-49
2022/05/27 02:28:52;;;;;;;;;;;;;;;24.48;51.46;99990.69;5053587;28;20399;-47
2022/05/27 02:31:22;;;;;;;;;;;;;;;24.31;52.04;99993.06;5053646;28;19936;-47
2022/05/27 02:37:04;;;;;;;;;;;;;;;24.40;51.61;99994.06;5034706;28;19970;-47
2022/05/27 02:39:30;;;;;;;;;;;;;;;24.15;52.37;99997.88;5028608;28;20415;-48
2022/05/27 02:41:57;;;;;;;;;;;;;;;23.97;52.72;99991.22;5033393;28;19913;-49
2022/05/27 02:44:25;;;;;;;;;;;;;;;24.03;52.72;99986.56;5033450;28;19909;-49
2022/05/27 02:46:57;;;;;;;;;;;;;;;24.02;52.60;99995.81;5032616;28;19909;-49
2022/05/27 02:49:38;;;;;;;;;;;;;;;24.13;52.63;99990.00;5033536;28;19909;-50
2022/05/27 02:52:15;;;;;;;;;;;;;;;24.42;51.52;99991.84;5033632;28;19913;-47
2022/05/27 02:55:03;;;;;;;;;;;;;;;24.33;51.87;99988.16;5033141;28;19925;-48
2022/05/27 02:57:41;;;;;;;;;;;;;;;24.24;52.31;99992.59;5032397;28;19909;-48
2022/05/27 03:00:08;;;;;;;;;;;;;;;24.25;52.32;99994.22;5032952;28;19931;-50
2022/05/27 03:02:33;;;;;;;;;;;;;;;24.43;51.83;99995.38;5032827;28;19975;-49
2022/05/27 03:05:00;;;;;;;;;;;;;;;24.20;52.37;99987.75;5033285;28;19913;-50
2022/05/27 03:07:28;;;;;;;;;;;;;;;24.13;52.49;99998.16;5032564;28;20004;-50
2022/05/27 03:10:02;;;;;;;;;;;;;;;24.01;52.87;99997.75;5032394;28;19951;-49
2022/05/27 03:12:37;;;;;;;;;;;;;;;23.97;52.90;99994.78;5032033;28;19916;-50
2022/05/27 03:15:10;;;;;;;;;;;;;;;24.13;52.28;99998.16;5031968;28;19916;-46
2022/05/27 03:17:35;;;;;;;;;;;;;;;24.29;52.12;99990.63;5031548;28;19912;-48
2022/05/27 03:20:16;;;;;;;;;;;;;;;24.06;52.56;99994.16;5031972;28;19974;-47
2022/05/27 03:22:47;;;;;;;;;;;;;;;24.03;52.73;100000.16;5031888;28;19909;-49
2022/05/27 03:25:23;;;;;;;;;;;;;;;24.08;52.72;99994.66;5031962;28;20428;-47
2022/05/27 03:27:57;;;;;;;;;;;;;;;24.06;52.22;99989.50;5039561;28;19913;-51
2022/05/27 03:30:30;;;;;;;;;;;;;;;24.07;52.42;99993.88;5051527;28;19916;-48
2022/05/27 03:32:58;;;;;;;;;;;;;;;24.07;52.42;99998.50;5051612;28;20008;-49
2022/05/27 03:35:35;;;;;;;;;;;;;;;24.24;52.01;99996.16;5051682;28;19960;-50
2022/05/27 03:38:10;;;;;;;;;;;;;;;24.46;51.47;100003.78;5051508;28;19912;-51
2022/05/27 03:40:41;;;;;;;;;;;;;;;24.44;51.36;100002.44;5051911;28;19912;-50
2022/05/27 03:43:07;;;;;;;;;;;;;;;25.17;49.62;100002.06;5051341;28;19916;-47
2022/05/27 03:45:46;;;;;;;;;;;;;;;24.72;50.44;99998.06;5050365;28;19908;-48
2022/05/27 03:48:11;;;;;;;;;;;;;;;24.80;50.25;100000.13;5050385;28;19909;-46
2022/05/27 03:50:36;;;;;;;;;;;;;;;25.02;49.72;99994.13;5050520;28;19920;-48
2022/05/27 03:53:01;;;;;;;;;;;;;;;25.97;48.01;100001.41;5050557;28;20270;-49
2022/05/27 03:55:27;;;;;;;;;;;;;;;25.55;48.49;99993.06;5050978;28;19908;-48
2022/05/27 03:57:52;;;;;;;;;;;;;;;25.52;48.97;99997.22;5031042;28;19909;-51
2022/05/27 04:00:18;;;;;;;;;;;;;;;25.68;48.82;100002.41;5031278;28;19975;-49
2022/05/27 04:02:44;;;;;;;;;;;;;;;25.80;48.38;99993.75;5031398;28;19909;-46
2022/05/27 04:05:11;;;;;;;;;;;;;;;26.06;47.30;100002.31;5031674;28;19908;-48
2022/05/27 04:07:36;;;;;;;;;;;;;;;26.76;45.76;99995.00;5031399;28;20377;-47
2022/05/27 04:10:02;;;;;;;;;;;;;;;26.10;47.50;99993.25;5031714;28;19978;-51
2022/05/27 04:12:27;;;;;;;;;;;;;;;26.28;47.31;100001.66;5031056;28;19913;-48
2022/05/27 04:14:53;;;;;;;;;;;;;;;26.38;46.90;100006.09;5031113;28;19936;-50
2022/05/27 04:17:27;;;;;;;;;;;;;;;26.80;46.13;99999.53;5031167;28;19963;-47
2022/05/27 04:19:53;;;;;;;;;;;;;;;26.67;46.44;99998.47;5030824;28;19909;-48
2022/05/27 04:22:18;;;;;;;;;;;;;;;26.64;46.62;100006.44;5030315;28;19909;-48
2022/05/27 04:24:43;;;;;;;;;;;;;;;26.84;45.96;99997.78;5030149;28;19975;-49
2022/05/27 04:27:10;;;;;;;;;;;;;;;27.36;44.75;99994.78;5029932;28;19913;-50
2022/05/27 04:29:42;;;;;;;;;;;;;;;27.06;45.13;99997.06;5030050;28;19913;-50
2022/05/27 04:32:08;;;;;;;;;;;;;;;26.98;45.31;100000.53;5029885;28;20599;-49
2022/05/27 04:34:34;;;;;;;;;;;;;;;27.16;45.00;99990.53;5040417;28;20028;-46
2022/05/27 04:36:59;;;;;;;;;;;;;;;27.09;45.22;99999.19;5049770;28;20044;-47
2022/05/27 04:39:25;;;;;;;;;;;;;;;27.17;45.13;99994.06;5049732;28;19919;-47
2022/05/27 04:41:50;;;;;;;;;;;;;;;27.74;43.47;99988.09;5049196;28;20411;-47
2022/05/27 04:44:15;;;;;;;;;;;;;;;28.46;42.28;99992.47;5049295;28;19962;-50
2022/05/27 04:46:43;;;;;;;;;;;;;;;29.00;41.37;99987.63;5049738;28;20378;-48
2022/05/27 04:49:08;;;;;;;;;;;;;;;29.15;40.70;99982.81;5049405;28;20000;-48
2022/05/27 04:51:33;;;;;;;;;;;;;;;29.32;40.40;99993.78;5049563;28;19947;-51
2022/05/27 04:53:59;;;;;;;;;;;;;;;29.60;39.94;99986.00;5049024;28;20267;-51
2022/05/27 04:56:25;;;;;;;;;;;;;;;29.78;38.79;99983.28;5041527;28;19913;-48
2022/05/27 04:58:50;;;;;;;;;;;;;;;30.17;38.49;99989.59;5028548;28;20399;-51
2022/05/27 05:01:16;;;;;;;;;;;;;;;30.16;38.12;99982.50;5030035;28;20437;-50
2022/05/27 05:03:41;;;;;;;;;;;;;;;30.54;37.47;99988.00;5029904;28;19904;-47
2022/05/27 05:06:06;;;;;;;;;;;;;;;30.67;37.50;99993.56;5028405;28;19936;-49
2022/05/27 05:08:33;;;;;;;;;;;;;;;30.48;37.90;99994.81;5029882;28;20008;-48
2022/05/27 05:10:59;;;;;;;;;;;;;;;30.62;37.52;99986.31;5029453;28;19964;-48
2022/05/27 05:13:24;;;;;;;;;;;;;;;30.75;37.44;99993.50;5029279;28;19913;-48
2022/05/27 05:15:49;;;;;;;;;;;;;;;31.67;36.06;99991.03;5029678;28;20275;-51
2022/05/27 05:18:15;;;;;;;;;;;;;;;31.53;36.10;99986.63;5029732;28;20070;-50
2022/05/27 05:20:40;;;;;;;;;;;;;;;31.96;34.87;99981.78;5029886;28;19909;-49
2022/05/27 05:23:05;;;;;;;;;;;;;;;32.00;35.16;99979.16;5029703;28;19909;-48
2022/05/27 05:25:32;;;;;;;;;;;;;;;32.40;34.53;99984.81;5029462;28;19909;-51
2022/05/27 05:27:58;;;;;;;;;;;;;;;31.68;35.32;99978.88;5029468;28;19909;-50
2022/05/27 05:30:24;;;;;;;;;;;;;;;31.68;35.14;99982.44;5029418;28;19944;-48
2022/05/27 05:32:49;;;;;;;;;;;;;;;32.10;34.43;99984.22;5029497;28;19940;-51
2022/05/27 05:35:15;;;;;;;;;;;;;;;31.71;34.86;99989.19;5036798;28;19975;-49
2022/05/27 05:37:41;;;;;;;;;;;;;;;31.77;34.63;99991.38;5049182;28;19939;-51
2022/05/27 05:40:07;;;;;;;;;;;;;;;32.71;32.76;99988.94;5049491;28;20355;-51
2022/05/27 05:42:33;;;;;;;;;;;;;;;32.32;33.33;99989.31;5049254;28;19908;-51
2022/05/27 05:44:59;;;;;;;;;;;;;;;31.46;34.91;99991.03;5047843;28;19915;-50
2022/05/27 05:47:24;;;;;;;;;;;;;;;31.49;34.39;99993.97;5048824;28;19909;-50
2022/05/27 05:49:50;;;;;;;;;;;;;;;30.80;35.40;99998.78;5047802;28;19915;-50
2022/05/27 05:52:15;;;;;;;;;;;;;;;31.68;34.77;99996.19;5048809;28;19912;-49
2022/05/27 05:54:40;;;;;;;;;;;;;;;32.17;34.06;99989.19;5049408;28;19919;-50
2022/05/27 05:57:06;;;;;;;;;;;;;;;31.54;34.41;99981.94;5035428;28;19932;-51
2022/05/27 05:59:33;;;;;;;;;;;;;;;32.07;33.94;99991.25;5028916;28;20364;-51
2022/05/27 06:01:59;;;;;;;;;;;;;;;31.51;35.36;99985.34;5029428;28;19932;-48
2022/05/27 06:04:24;;;;;;;;;;;;;;;32.21;34.31;99981.84;5029445;28;20431;-49
2022/05/27 06:06:50;;;;;;;;;;;;;;;31.85;34.12;99986.13;5029206;28;19909;-50
2022/05/27 06:09:15;;;;;;;;;;;;;;;32.37;33.92;99990.22;5032910;28;20517;-49
2022/05/27 06:11:40;;;;;;;;;;;;;;;32.65;33.39;99991.16;5032607;28;20340;-51
2022/05/27 06:14:06;;;;;;;;;;;;;;;33.47;32.20;99979.00;5030889;28;19917;-51
2022/05/27 06:16:32;;;;;;;;;;;;;;;33.77;31.88;99980.56;5032314;28;19909;-50
2022/05/27 06:18:58;;;;;;;;;;;;;;;34.77;30.13;99980.25;5032478;28;20021;-51
2022/05/27 06:21:24;;;;;;;;;;;;;;;35.20;29.16;99980.38;5032702;28;19952;-50
2022/05/27 06:23:49;;;;;;;;;;;;;;;34.88;29.16;99980.50;5032746;28;20389;-48
2022/05/27 06:26:14;;;;;;;;;;;;;;;35.15;29.03;99988.97;5032414;28;19919;-49
2022/05/27 06:34:23;;;;;;;;;;;;;;;35.21;28.72;99988.31;5032550;28;20047;-51
2022/05/27 06:36:50;;;;;;;;;;;;;;;35.24;28.75;99981.25;5031281;28;19921;-49
2022/05/27 06:39:16;;;;;;;;;;;;;;;35.96;28.08;99979.81;5032538;28;19967;-51
2022/05/27 06:41:42;;;;;;;;;;;;;;;34.35;28.14;99974.53;5031982;28;19913;-50
2022/05/27 06:44:09;;;;;;;;;;;;;;;34.03;28.88;99975.34;5032235;28;20058;-51
2022/05/27 06:46:34;;;;;;;;;;;;;;;34.50;27.90;99965.44;5032232;28;19909;-51
2022/05/27 06:49:00;;;;;;;;;;;;;;;34.05;28.34;99973.00;5032184;28;19916;-51
2022/05/27 06:51:25;;;;;;;;;;;;;;;34.91;27.32;99978.97;5032433;28;19917;-51
2022/05/27 06:53:51;;;;;;;;;;;;;;;35.56;27.20;99972.75;5031932;28;19924;-50
2022/05/27 06:56:16;;;;;;;;;;;;;;;34.42;27.87;99971.94;5031906;28;19948;-51
2022/05/27 06:58:42;;;;;;;;;;;;;;;35.46;27.10;99965.09;5031788;28;19991;-49
2022/05/27 07:01:11;;;;;;;;;;;;;;;36.14;26.85;99969.84;5031813;28;20011;-51
2022/05/27 07:03:37;;;;;;;;;;;;;;;36.83;26.29;99966.13;5031900;28;19909;-49
2022/05/27 07:06:06;;;;;;;;;;;;;;;37.06;26.17;99963.25;5031677;28;19909;-51
2022/05/27 07:08:32;;;;;;;;;;;;;;;37.12;25.87;99964.50;5031910;28;19909;-50
2022/05/27 07:10:57;;;;;;;;;;;;;;;36.39;26.07;99955.63;5031906;28;19909;-52
2022/05/27 07:13:22;;;;;;;;;;;;;;;36.73;25.94;99958.50;5031314;28;19909;-52
2022/05/27 07:15:48;;;;;;;;;;;;;;;37.47;25.13;99959.75;5031673;28;19909;-51
2022/05/27 07:18:13;;;;;;;;;;;;;;;37.34;25.43;99951.72;5030881;28;19919;-52
2022/05/27 07:20:40;;;;;;;;;;;;;;;37.54;24.97;99946.75;5030945;28;19909;-51
2022/05/27 07:23:06;;;;;;;;;;;;;;;37.53;25.20;99953.50;5030790;28;19940;-51
2022/05/27 07:25:37;;;;;;;;;;;;;;;37.43;25.54;99951.38;5031581;28;19920;-53
2022/05/27 07:28:03;;;;;;;;;;;;;;;37.58;25.00;99935.69;5031342;28;19960;-51
2022/05/27 07:30:29;;;;;;;;;;;;;;;38.36;24.23;99936.72;5031419;28;20074;-51
2022/05/27 07:32:54;;;;;;;;;;;;;;;37.77;24.55;99936.69;5031171;28;20353;-51
2022/05/27 07:35:20;;;;;;;;;;;;;;;37.57;24.54;99936.88;5038594;28;20004;-51
2022/05/27 07:37:46;;;;;;;;;;;;;;;38.29;23.75;99937.47;5051204;28;20011;-52
2022/05/27 07:40:12;;;;;;;;;;;;;;;38.75;23.54;99927.81;5051265;28;20119;-52
2022/05/27 07:42:38;;;;;;;;;;;;;;;38.32;23.64;99928.38;5051523;28;19963;-53
2022/05/27 07:45:04;;;;;;;;;;;;;;;36.95;24.47;99923.50;5051246;28;19909;-52
2022/05/27 07:47:29;;;;;;;;;;;;;;;37.90;23.67;99926.88;5051059;28;19915;-37
2022/05/27 07:49:54;;;;;;;;;;;;;;;38.69;22.50;99921.84;5050855;28;20003;-51
2022/05/27 07:52:20;;;;;;;;;;;;;;;39.32;22.75;99930.00;5051189;28;19990;-38
2022/05/27 07:54:45;;;;;;;;;;;;;;;39.29;21.56;99924.03;5050759;28;19928;-37
2022/05/27 07:57:27;;;;;;;;;;;;;;;38.77;22.49;99917.91;5050864;28;20069;-51
2022/05/27 07:59:52;;;;;;;;;;;;;;;39.43;21.91;99916.91;5050823;28;20003;-51
2022/05/27 08:02:18;;;;;;;;;;;;;;;38.59;21.69;99914.25;5050841;28;19986;-53
2022/05/27 08:04:43;;;;;;;;;;;;;;;39.33;21.64;99917.69;5050854;28;19908;-53
2022/05/27 08:07:08;;;;;;;;;;;;;;;39.14;21.29;99911.28;5050314;28;19908;-50
2022/05/27 08:09:34;;;;;;;;;;;;;;;39.54;20.52;99920.53;5050621;28;19909;-50
2022/05/27 08:11:59;;;;;;;;;;;;;;;39.26;20.61;99913.72;5050696;28;20239;-51
2022/05/27 08:14:25;;;;;;;;;;;;;;;38.94;20.82;99910.00;5050589;28;19928;-50
2022/05/27 08:16:50;;;;;;;;;;;;;;;38.56;21.25;99901.94;5050278;28;19915;-52
2022/05/27 08:19:16;;;;;;;;;;;;;;;38.26;22.04;99902.16;5050418;28;19983;-51
2022/05/27 08:21:41;;;;;;;;;;;;;;;38.52;21.74;99901.88;5049883;28;19908;-51
2022/05/27 08:24:09;;;;;;;;;;;;;;;39.26;21.30;99901.78;5050087;28;20368;-50
2022/05/27 08:26:34;;;;;;;;;;;;;;;39.85;20.25;99899.47;5049940;28;19908;-50
2022/05/27 08:29:00;;;;;;;;;;;;;;;39.29;19.50;99892.66;5050733;28;19916;-54
2022/05/27 08:31:25;;;;;;;;;;;;;;;39.93;19.45;99888.31;5050015;28;19920;-51
2022/05/27 08:39:18;;;;;;;;;;;;;;;40.14;19.71;99879.94;5030352;28;20312;-50
2022/05/27 08:41:53;;;;;;;;;;;;;;;40.68;18.43;99876.97;5030267;28;19908;-51
2022/05/27 08:44:19;;;;;;;;;;;;;;;40.86;19.18;99873.34;5030258;28;20356;-51
2022/05/27 08:46:53;;;;;;;;;;;;;;;41.28;18.79;99874.28;5030508;28;20007;-51
2022/05/27 08:49:21;;;;;;;;;;;;;;;41.48;18.03;99872.53;5029867;28;19916;-51
2022/05/27 08:51:49;;;;;;;;;;;;;;;40.62;19.21;99868.25;5029995;28;20007;-50
2022/05/27 08:54:29;;;;;;;;;;;;;;;40.02;19.86;99869.22;5029642;28;20008;-49
2022/05/27 08:59:42;;;;;;;;;;;;;;;40.10;19.10;99858.84;5030078;28;19915;-51
2022/05/27 09:02:26;;;;;;;;;;;;;;;39.52;19.13;99867.25;5029545;28;20430;-51
2022/05/27 09:05:14;;;;;;;;;;;;;;;39.87;17.43;99860.03;5029515;28;19915;-52
2022/05/27 09:07:47;;;;;;;;;;;;;;;39.03;18.65;99858.44;5030100;28;20004;-49
2022/05/27 09:10:18;;;;;;;;;;;;;;;38.45;18.09;99854.59;5029538;28;20000;-53
2022/05/27 09:12:43;;;;;;;;;;;;;;;38.69;18.36;99855.13;5029550;28;19996;-51
2022/05/27 09:15:15;;;;;;;;;;;;;;;38.98;17.53;99858.78;5029405;28;20032;-50
2022/05/27 09:17:49;;;;;;;;;;;;;;;39.28;18.05;99852.91;5029499;28;19909;-50
2022/05/27 09:20:15;;;;;;;;;;;;;;;38.52;18.23;99842.75;5029302;28;19909;-50
2022/05/27 09:22:46;;;;;;;;;;;;;;;38.66;19.15;99842.81;5027653;28;20440;-50
2022/05/27 09:25:24;;;;;;;;;;;;;;;38.22;19.19;99831.88;5028855;28;19931;-50
2022/05/27 09:27:58;;;;;;;;;;;;;;;38.53;18.76;99833.19;5029249;28;19975;-49
2022/05/27 09:30:23;;;;;;;;;;;;;;;39.23;17.97;99831.03;5029345;28;19943;-52
2022/05/27 09:32:55;;;;;;;;;;;;;;;40.05;18.13;99823.84;5029104;28;20392;-52
2022/05/27 09:35:24;;;;;;;;;;;;;;;40.05;17.80;99819.06;5037642;28;20415;-50
2022/05/27 09:37:51;;;;;;;;;;;;;;;39.58;18.06;99820.31;5049583;28;19967;-52
2022/05/27 09:40:19;;;;;;;;;;;;;;;40.01;17.70;99809.91;5049286;28;20011;-52
2022/05/27 09:42:48;;;;;;;;;;;;;;;39.19;18.43;99807.19;5050479;28;19909;-38
2022/05/27 09:45:13;;;;;;;;;;;;;;;40.00;17.79;99804.75;5051490;28;19909;-42
2022/05/27 09:47:40;;;;;;;;;;;;;;;40.68;17.79;99801.69;5053231;28;19958;-37
2022/05/27 09:50:26;;;;;;;;;;;;;;;40.75;16.68;99800.88;5050009;28;19917;-37
2022/05/27 09:52:54;;;;;;;;;;;;;;;39.96;17.67;99796.41;5044001;28;19967;-37
2022/05/27 09:55:23;;;;;;;;;;;;;;;40.42;17.35;99798.25;5041683;28;19952;-51
2022/05/27 09:57:59;;;;;;;;;;;;;;;40.55;16.99;99797.78;5043137;28;19909;-51
2022/05/27 10:00:33;;;;;;;;;;;;;;;41.19;16.06;99797.41;5041671;28;20395;-51
2022/05/27 10:02:59;;;;;;;;;;;;;;;41.32;16.90;99780.16;5046741;28;19908;-52
2022/05/27 10:05:25;;;;;;;;;;;;;;;40.79;17.40;99787.72;5052950;28;20343;-49
2022/05/27 10:07:52;;;;;;;;;;;;;;;40.78;17.47;99781.34;5052848;28;19931;-38
2022/05/27 10:10:26;;;;;;;;;;;;;;;40.84;17.55;99776.13;5052870;28;19909;-38
2022/05/27 10:12:52;;;;;;;;;;;;;;;40.98;17.21;99766.88;5052519;28;19909;-38
2022/05/27 10:15:25;;;;;;;;;;;;;;;40.73;17.43;99770.59;5051897;28;19919;-38
2022/05/27 10:17:50;;;;;;;;;;;;;;;39.84;18.58;99768.97;5049497;28;20293;-37
2022/05/27 10:20:19;;;;;;;;;;;;;;;40.36;17.62;99741.34;5053162;28;19920;-37
2022/05/27 10:22:56;;;;;;;;;;;;;;;40.76;16.26;99753.06;5052812;28;19908;-38
2022/05/27 10:25:27;;;;;;;;;;;;;;;40.44;17.38;99747.66;5052587;28;19913;-37
2022/05/27 10:27:53;;;;;;;;;;;;;;;40.78;16.52;99744.28;5052540;28;20372;-37
2022/05/27 10:30:21;;;;;;;;;;;;;;;41.46;16.55;99745.75;5053085;28;19917;-36
2022/05/27 10:32:47;;;;;;;;;;;;;;;41.10;16.42;99735.66;5052764;28;19908;-38
2022/05/27 10:35:21;;;;;;;;;;;;;;;40.90;16.82;99737.44;5052562;28;19991;-38
2022/05/27 10:37:49;;;;;;;;;;;;;;;40.96;17.50;99733.81;5052869;28;19919;-39
2022/05/27 10:40:27;;;;;;;;;;;;;;;41.61;16.88;99736.00;5052884;28;20012;-38
2022/05/27 10:42:58;;;;;;;;;;;;;;;41.96;16.15;99723.63;5052396;28;19915;-38
2022/05/27 10:45:30;;;;;;;;;;;;;;;41.78;16.25;99726.66;5052248;28;20300;-38
2022/05/27 10:48:08;;;;;;;;;;;;;;;41.29;16.44;99716.78;5052456;28;19978;-38
2022/05/27 10:50:46;;;;;;;;;;;;;;;41.74;16.36;99714.75;5052298;28;19913;-39
2022/05/27 10:53:30;;;;;;;;;;;;;;;41.76;16.67;99717.91;5051455;28;19913;-39
2022/05/27 10:55:55;;;;;;;;;;;;;;;41.44;16.27;99709.06;5051199;28;19908;-38
2022/05/27 11:04:09;;;;;;;;;;;;;;;41.44;16.12;99690.31;5052063;28;19971;-38
2022/05/27 11:06:40;;;;;;;;;;;;;;;41.98;16.62;99687.72;5052345;28;19959;-39
2022/05/27 11:09:32;;;;;;;;;;;;;;;41.85;15.53;99692.28;5051973;28;19912;-38
2022/05/27 11:12:05;;;;;;;;;;;;;;;41.03;17.03;99682.72;5035996;28;19993;-39
2022/05/27 11:17:14;;;;;;;;;;;;;;;42.23;14.96;99681.00;5051873;28;19974;-39
2022/05/27 11:19:58;;;;;;;;;;;;;;;42.69;15.03;99687.13;5052130;28;20352;-39
2022/05/27 11:22:42;;;;;;;;;;;;;;;40.54;16.05;99687.50;5049747;28;19916;-37
2022/05/27 11:25:21;;;;;;;;;;;;;;;39.39;18.38;99679.56;5051710;28;19971;-38
2022/05/27 11:27:58;;;;;;;;;;;;;;;39.24;18.46;99681.56;5051459;28;19936;-39
2022/05/27 11:30:28;;;;;;;;;;;;;;;37.90;19.23;99677.75;5051769;28;19992;-39
2022/05/27 11:32:59;;;;;;;;;;;;;;;36.74;19.55;99674.59;5052100;28;19909;-39
2022/05/27 11:35:24;;;;;;;;;;;;;;;36.89;19.74;99678.28;5043104;28;19909;-39
2022/05/27 11:38:01;;;;;;;;;;;;;;;37.15;20.26;99661.47;5031662;28;19982;-38
2022/05/27 11:40:32;;;;;;;;;;;;;;;37.16;19.42;99670.59;5031433;28;19920;-38
2022/05/27 11:43:11;;;;;;;;;;;;;;;36.83;19.61;99663.97;5031863;28;19916;-38
2022/05/27 11:45:40;;;;;;;;;;;;;;;36.60;20.08;99653.06;5031225;28;20377;-39
2022/05/27 11:48:06;;;;;;;;;;;;;;;36.80;19.89;99656.41;5031550;28;20007;-37
2022/05/27 11:51:00;;;;;;;;;;;;;;;36.91;20.50;99650.97;5031153;28;19919;-37
2022/05/27 11:53:28;;;;;;;;;;;;;;;36.43;20.23;99648.16;5031746;28;19920;-38
2022/05/27 11:55:53;;;;;;;;;;;;;;;36.63;20.27;99637.63;5031992;28;19913;-38
2022/05/27 11:58:25;;;;;;;;;;;;;;;36.42;22.07;99638.25;5031807;28;19916;-38
2022/05/27 12:00:55;;;;;;;;;;;;;;;36.25;22.12;99634.91;5031041;28;19909;-38
2022/05/27 12:03:31;;;;;;;;;;;;;;;35.65;22.23;99638.53;5030872;28;19932;-37
2022/05/27 12:06:01;;;;;;;;;;;;;;;35.57;21.90;99623.78;5030280;28;19909;-38
2022/05/27 12:08:40;;;;;;;;;;;;;;;35.24;23.09;99632.81;5031059;28;20670;-38
2022/05/27 12:11:10;;;;;;;;;;;;;;;34.62;23.70;99630.22;5030968;28;20098;-38
2022/05/27 12:13:54;;;;;;;;;;;;;;;33.91;23.86;99629.66;5041734;28;19920;-38
2022/05/27 12:16:19;;;;;;;;;;;;;;;33.94;23.68;99626.97;5038724;28;19944;-38
2022/05/27 12:18:47;;;;;;;;;;;;;;;35.03;23.12;99620.25;5041285;28;20452;-39
2022/05/27 12:21:20;;;;;;;;;;;;;;;34.69;23.85;99624.03;5039757;28;19948;-37
2022/05/27 12:23:50;;;;;;;;;;;;;;;34.64;24.20;99611.31;5036512;28;19959;-38
2022/05/27 12:26:16;;;;;;;;;;;;;;;34.64;24.76;99614.84;5040566;28;19919;-38
2022/05/27 12:28:42;;;;;;;;;;;;;;;34.70;22.90;99609.06;5039342;28;19912;-38
2022/05/27 12:31:08;;;;;;;;;;;;;;;34.43;23.60;99608.97;5040864;28;20012;-38
2022/05/27 12:33:35;;;;;;;;;;;;;;;33.99;23.98;99599.09;5038899;28;20011;-38
2022/05/27 12:36:02;;;;;;;;;;;;;;;34.81;22.89;99598.97;5036536;28;19916;-39
2022/05/27 12:38:33;;;;;;;;;;;;;;;34.36;24.48;99609.63;5042251;28;19961;-39
2022/05/27 12:41:08;;;;;;;;;;;;;;;33.61;26.02;99605.38;5036577;28;19952;-38
2022/05/27 12:43:37;;;;;;;;;;;;;;;33.28;26.14;99610.22;5039101;28;19913;-38
2022/05/27 12:46:02;;;;;;;;;;;;;;;33.19;26.24;99597.78;5040954;28;19916;-38
2022/05/27 12:48:38;;;;;;;;;;;;;;;33.03;26.31;99589.50;5041322;28;19975;-38
2022/05/27 12:51:07;;;;;;;;;;;;;;;32.82;26.79;99589.81;5035796;28;19919;-38
2022/05/27 12:53:43;;;;;;;;;;;;;;;32.64;27.41;99584.66;5030158;28;19971;-38
2022/05/27 13:02:21;;;;;;;;;;;;;;;32.28;28.28;99580.97;5030174;28;20359;-52
2022/05/27 13:04:49;;;;;;;;;;;;;;;32.37;27.11;99589.06;5029869;28;19917;-49
2022/05/27 13:07:20;;;;;;;;;;;;;;;32.37;27.66;99591.81;5030087;28;19916;-50
2022/05/27 13:09:47;;;;;;;;;;;;;;;32.05;29.84;99588.22;5029911;28;20347;-49
2022/05/27 13:12:30;;;;;;;;;;;;;;;32.19;29.48;99585.84;5030398;28;20035;-50
2022/05/27 13:14:56;;;;;;;;;;;;;;;31.86;30.32;99578.66;5030524;28;20120;-49
2022/05/27 13:17:33;;;;;;;;;;;;;;;31.69;29.94;99577.00;5030501;28;20436;-50
2022/05/27 13:20:19;;;;;;;;;;;;;;;31.35;31.16;99556.34;5034535;28;19987;-49
2022/05/27 13:23:09;;;;;;;;;;;;;;;31.49;31.43;99555.97;5033916;28;19913;-49
2022/05/27 13:25:43;;;;;;;;;;;;;;;31.33;31.69;99562.19;5033656;28;19913;-48
2022/05/27 13:28:11;;;;;;;;;;;;;;;31.61;31.37;99579.91;5033221;28;19963;-48
2022/05/27 13:30:48;;;;;;;;;;;;;;;31.41;31.88;99570.63;5033852;28;19921;-49